sensor_id;sensor_type;location;lat;lon;timestamp;temperature;humidity
2489;DHT22;1255;48.716;9.124;2022-10-16T00:01:50;14.90;99.90
2489;DHT22;1255;48.716;9.124;2022-10-16T00:04:17;15.00;99.90
2489;DHT22;1255;48.716;9.124;2022-10-16T00:06:44;15.00;99.90
2489;DHT22;1255;48.716;9.124;2022-10-16T00:09:10;15.00;99.90
2489;DHT22;1255;48.716;9.124;2022-10-16T00:11:39;15.00;99.90
2489;DHT22;1255;48.716;9.124;2022-10-16T00:14:08;15.00;99.90
2489;DHT22;1255;48.716;9.124;2022-10-16T00:16:35;15.00;99.90
2489;DHT22;1255;48.716;9.124;2022-10-16T00:19:04;14.90;99.90
2489;DHT22;1255;48.716;9.124;2022-10-16T00:21:31;14.90;99.90
2489;DHT22;1255;48.716;9.124;2022-10-16T00:24:00;14.90;99.90
2489;DHT22;1255;48.716;9.124;2022-10-16T00:26:29;14.80;99.90
2489;DHT22;1255;48.716;9.124;2022-10-16T00:28:56;14.80;99.90
2489;DHT22;1255;48.716;9.124;2022-10-16T00:31:23;14.80;99.90
2489;DHT22;1255;48.716;9.124;2022-10-16T00:33:51;14.70;99.90
2489;DHT22;1255;48.716;9.124;2022-10-16T00:36:21;14.70;99.90
2489;DHT22;1255;48.716;9.124;2022-10-16T00:38:50;14.70;99.90
2489;DHT22;1255;48.716;9.124;2022-10-16T00:41:20;14.60;99.90
2489;DHT22;1255;48.716;9.124;2022-10-16T00:43:49;14.60;99.90
2489;DHT22;1255;48.716;9.124;2022-10-16T00:46:19;14.50;99.90
2489;DHT22;1255;48.716;9.124;2022-10-16T00:48:50;14.50;99.90
2489;DHT22;1255;48.716;9.124;2022-10-16T00:51:23;14.50;99.90
2489;DHT22;1255;48.716;9.124;2022-10-16T00:53:51;14.40;99.90
2489;DHT22;1255;48.716;9.124;2022-10-16T00:56:18;14.40;99.90
2489;DHT22;1255;48.716;9.124;2022-10-16T00:58:45;14.40;99.90
2489;DHT22;1255;48.716;9.124;2022-10-16T01:01:12;14.40;99.90
2489;DHT22;1255;48.716;9.124;2022-10-16T01:03:39;14.30;99.90
2489;DHT22;1255;48.716;9.124;2022-10-16T01:06:18;14.30;99.90
2489;DHT22;1255;48.716;9.124;2022-10-16T01:08:58;14.20;99.90
2489;DHT22;1255;48.716;9.124;2022-10-16T01:11:32;14.30;99.90
2489;DHT22;1255;48.716;9.124;2022-10-16T01:14:06;14.20;99.90
2489;DHT22;1255;48.716;9.124;2022-10-16T01:16:44;14.20;99.90
2489;DHT22;1255;48.716;9.124;2022-10-16T01:19:16;14.20;99.90
2489;DHT22;1255;48.716;9.124;2022-10-16T01:21:48;14.20;99.90
2489;DHT22;1255;48.716;9.124;2022-10-16T01:24:27;14.20;99.90
2489;DHT22;1255;48.716;9.124;2022-10-16T01:27:10;14.20;99.90
2489;DHT22;1255;48.716;9.124;2022-10-16T01:29:41;14.20;99.90
2489;DHT22;1255;48.716;9.124;2022-10-16T01:32:15;14.20;99.90
2489;DHT22;1255;48.716;9.124;2022-10-16T01:34:48;14.20;99.90
2489;DHT22;1255;48.716;9.124;2022-10-16T01:37:21;14.10;99.90
2489;DHT22;1255;48.716;9.124;2022-10-16T01:39:50;14.10;99.90
2489;DHT22;1255;48.716;9.124;2022-10-16T01:42:22;14.10;99.90
2489;DHT22;1255;48.716;9.124;2022-10-16T01:44:51;14.10;99.90
2489;DHT22;1255;48.716;9.124;2022-10-16T01:47:22;14.10;99.90
2489;DHT22;1255;48.716;9.124;2022-10-16T01:49:51;14.10;99.90
2489;DHT22;1255;48.716;9.124;2022-10-16T01:52:22;14.10;99.90
2489;DHT22;1255;48.716;9.124;2022-10-16T01:54:53;14.10;99.90
2489;DHT22;1255;48.716;9.124;2022-10-16T01:57:23;14.10;99.90
2489;DHT22;1255;48.716;9.124;2022-10-16T01:59:53;14.10;99.90
2489;DHT22;1255;48.716;9.124;2022-10-16T02:02:22;14.10;99.90
2489;DHT22;1255;48.716;9.124;2022-10-16T02:04:54;14.10;99.90
2489;DHT22;1255;48.716;9.124;2022-10-16T02:07:23;14.10;99.90
2489;DHT22;1255;48.716;9.124;2022-10-16T02:09:50;14.10;99.90
2489;DHT22;1255;48.716;9.124;2022-10-16T02:12:23;14.20;99.90
2489;DHT22;1255;48.716;9.124;2022-10-16T02:14:52;14.20;99.90
2489;DHT22;1255;48.716;9.124;2022-10-16T02:17:20;14.20;99.90
2489;DHT22;1255;48.716;9.124;2022-10-16T02:19:49;14.30;99.90
2489;DHT22;1255;48.716;9.124;2022-10-16T02:22:19;14.30;99.90
2489;DHT22;1255;48.716;9.124;2022-10-16T02:24:53;14.30;99.90
2489;DHT22;1255;48.716;9.124;2022-10-16T02:27:26;14.30;99.90
2489;DHT22;1255;48.716;9.124;2022-10-16T02:29:59;14.30;99.90
2489;DHT22;1255;48.716;9.124;2022-10-16T02:32:34;14.40;99.90
2489;DHT22;1255;48.716;9.124;2022-10-16T02:35:02;14.40;99.90
2489;DHT22;1255;48.716;9.124;2022-10-16T02:37:31;14.40;99.90
2489;DHT22;1255;48.716;9.124;2022-10-16T02:39:58;14.50;99.90
2489;DHT22;1255;48.716;9.124;2022-10-16T02:42:29;14.40;99.90
2489;DHT22;1255;48.716;9.124;2022-10-16T02:44:59;14.40;99.90
2489;DHT22;1255;48.716;9.124;2022-10-16T02:47:26;14.40;99.90
2489;DHT22;1255;48.716;9.124;2022-10-16T02:49:53;14.40;99.90
2489;DHT22;1255;48.716;9.124;2022-10-16T02:52:19;14.40;99.90
2489;DHT22;1255;48.716;9.124;2022-10-16T02:54:46;14.40;99.90
2489;DHT22;1255;48.716;9.124;2022-10-16T02:57:13;14.40;99.90
2489;DHT22;1255;48.716;9.124;2022-10-16T02:59:41;14.30;99.90
2489;DHT22;1255;48.716;9.124;2022-10-16T03:02:08;14.30;99.90
2489;DHT22;1255;48.716;9.124;2022-10-16T03:04:35;14.30;99.90
2489;DHT22;1255;48.716;9.124;2022-10-16T03:07:02;14.30;99.90
2489;DHT22;1255;48.716;9.124;2022-10-16T03:09:28;14.30;99.90
2489;DHT22;1255;48.716;9.124;2022-10-16T03:11:55;14.30;99.90
2489;DHT22;1255;48.716;9.124;2022-10-16T03:14:22;14.30;99.90
2489;DHT22;1255;48.716;9.124;2022-10-16T03:16:50;14.20;99.90
2489;DHT22;1255;48.716;9.124;2022-10-16T03:19:17;14.20;99.90
2489;DHT22;1255;48.716;9.124;2022-10-16T03:21:44;14.20;99.90
2489;DHT22;1255;48.716;9.124;2022-10-16T03:24:11;14.20;99.90
2489;DHT22;1255;48.716;9.124;2022-10-16T03:26:38;14.20;99.90
2489;DHT22;1255;48.716;9.124;2022-10-16T03:29:05;14.20;99.90
2489;DHT22;1255;48.716;9.124;2022-10-16T03:31:32;14.20;99.90
2489;DHT22;1255;48.716;9.124;2022-10-16T03:34:00;14.20;99.90
2489;DHT22;1255;48.716;9.124;2022-10-16T03:36:27;14.20;99.90
2489;DHT22;1255;48.716;9.124;2022-10-16T03:38:54;14.20;99.90
2489;DHT22;1255;48.716;9.124;2022-10-16T03:41:20;14.10;99.90
2489;DHT22;1255;48.716;9.124;2022-10-16T03:43:47;14.10;99.90
2489;DHT22;1255;48.716;9.124;2022-10-16T03:46:14;14.10;99.90
2489;DHT22;1255;48.716;9.124;2022-10-16T03:48:40;14.10;99.90
2489;DHT22;1255;48.716;9.124;2022-10-16T03:51:08;14.10;99.90
2489;DHT22;1255;48.716;9.124;2022-10-16T03:53:35;14.10;99.90
2489;DHT22;1255;48.716;9.124;2022-10-16T03:56:02;14.10;99.90
2489;DHT22;1255;48.716;9.124;2022-10-16T03:58:29;14.10;99.90
2489;DHT22;1255;48.716;9.124;2022-10-16T04:00:55;14.00;99.90
2489;DHT22;1255;48.716;9.124;2022-10-16T04:03:22;14.00;99.90
2489;DHT22;1255;48.716;9.124;2022-10-16T04:05:49;14.00;99.90
2489;DHT22;1255;48.716;9.124;2022-10-16T04:08:17;14.00;99.90
2489;DHT22;1255;48.716;9.124;2022-10-16T04:10:44;14.00;99.90
2489;DHT22;1255;48.716;9.124;2022-10-16T04:13:11;14.00;99.90
2489;DHT22;1255;48.716;9.124;2022-10-16T04:15:38;14.00;99.90
2489;DHT22;1255;48.716;9.124;2022-10-16T04:18:06;14.00;99.90
2489;DHT22;1255;48.716;9.124;2022-10-16T04:20:33;14.00;99.90
2489;DHT22;1255;48.716;9.124;2022-10-16T04:23:00;14.00;99.90
2489;DHT22;1255;48.716;9.124;2022-10-16T04:25:28;14.00;99.90
2489;DHT22;1255;48.716;9.124;2022-10-16T04:27:55;14.10;99.90
2489;DHT22;1255;48.716;9.124;2022-10-16T04:30:22;14.00;99.90
2489;DHT22;1255;48.716;9.124;2022-10-16T04:32:49;14.10;99.90
2489;DHT22;1255;48.716;9.124;2022-10-16T04:35:16;14.00;99.90
2489;DHT22;1255;48.716;9.124;2022-10-16T04:37:43;14.00;99.90
2489;DHT22;1255;48.716;9.124;2022-10-16T04:40:10;14.10;99.90
2489;DHT22;1255;48.716;9.124;2022-10-16T04:42:38;14.00;99.90
2489;DHT22;1255;48.716;9.124;2022-10-16T04:45:06;14.10;99.90
2489;DHT22;1255;48.716;9.124;2022-10-16T04:47:33;14.10;99.90
2489;DHT22;1255;48.716;9.124;2022-10-16T04:50:00;14.00;99.90
2489;DHT22;1255;48.716;9.124;2022-10-16T04:52:31;14.00;99.90
2489;DHT22;1255;48.716;9.124;2022-10-16T04:55:07;14.00;99.90
2489;DHT22;1255;48.716;9.124;2022-10-16T04:57:34;14.00;99.90
2489;DHT22;1255;48.716;9.124;2022-10-16T05:00:03;14.00;99.90
2489;DHT22;1255;48.716;9.124;2022-10-16T05:02:29;14.00;99.90
2489;DHT22;1255;48.716;9.124;2022-10-16T05:04:56;14.00;99.90
2489;DHT22;1255;48.716;9.124;2022-10-16T05:07:23;14.00;99.90
2489;DHT22;1255;48.716;9.124;2022-10-16T05:09:49;14.10;99.90
2489;DHT22;1255;48.716;9.124;2022-10-16T05:12:16;14.10;99.90
2489;DHT22;1255;48.716;9.124;2022-10-16T05:14:43;14.20;99.90
2489;DHT22;1255;48.716;9.124;2022-10-16T05:17:11;14.20;99.90
2489;DHT22;1255;48.716;9.124;2022-10-16T05:19:38;14.20;99.90
2489;DHT22;1255;48.716;9.124;2022-10-16T05:22:04;14.20;99.90
2489;DHT22;1255;48.716;9.124;2022-10-16T05:24:31;14.10;99.90
2489;DHT22;1255;48.716;9.124;2022-10-16T05:26:58;14.10;99.90
2489;DHT22;1255;48.716;9.124;2022-10-16T05:29:24;14.10;99.90
2489;DHT22;1255;48.716;9.124;2022-10-16T05:31:52;14.10;99.90
2489;DHT22;1255;48.716;9.124;2022-10-16T05:34:20;14.00;99.90
2489;DHT22;1255;48.716;9.124;2022-10-16T05:36:47;14.00;99.90
2489;DHT22;1255;48.716;9.124;2022-10-16T05:39:15;14.00;99.90
2489;DHT22;1255;48.716;9.124;2022-10-16T05:41:42;14.00;99.90
2489;DHT22;1255;48.716;9.124;2022-10-16T05:44:09;14.00;99.90
2489;DHT22;1255;48.716;9.124;2022-10-16T05:46:36;14.00;99.90
2489;DHT22;1255;48.716;9.124;2022-10-16T05:49:03;13.90;99.90
2489;DHT22;1255;48.716;9.124;2022-10-16T05:51:31;13.90;99.90
2489;DHT22;1255;48.716;9.124;2022-10-16T05:53:57;13.90;99.90
2489;DHT22;1255;48.716;9.124;2022-10-16T05:56:24;13.90;99.90
2489;DHT22;1255;48.716;9.124;2022-10-16T05:58:51;13.90;99.90
2489;DHT22;1255;48.716;9.124;2022-10-16T06:01:18;13.80;99.90
2489;DHT22;1255;48.716;9.124;2022-10-16T06:03:46;13.90;99.90
2489;DHT22;1255;48.716;9.124;2022-10-16T06:06:13;13.90;99.90
2489;DHT22;1255;48.716;9.124;2022-10-16T06:08:43;13.90;99.90
2489;DHT22;1255;48.716;9.124;2022-10-16T06:11:12;13.90;99.90
2489;DHT22;1255;48.716;9.124;2022-10-16T06:13:39;14.00;99.90
2489;DHT22;1255;48.716;9.124;2022-10-16T06:16:08;14.00;99.90
2489;DHT22;1255;48.716;9.124;2022-10-16T06:18:35;14.00;99.90
2489;DHT22;1255;48.716;9.124;2022-10-16T06:21:07;14.10;99.90
2489;DHT22;1255;48.716;9.124;2022-10-16T06:23:34;14.10;99.90
2489;DHT22;1255;48.716;9.124;2022-10-16T06:26:06;14.10;99.90
2489;DHT22;1255;48.716;9.124;2022-10-16T06:28:33;14.20;99.90
2489;DHT22;1255;48.716;9.124;2022-10-16T06:31:00;14.20;99.90
2489;DHT22;1255;48.716;9.124;2022-10-16T06:33:27;14.20;99.90
2489;DHT22;1255;48.716;9.124;2022-10-16T06:36:00;14.30;99.90
2489;DHT22;1255;48.716;9.124;2022-10-16T06:38:27;14.30;99.90
2489;DHT22;1255;48.716;9.124;2022-10-16T06:40:55;14.40;99.90
2489;DHT22;1255;48.716;9.124;2022-10-16T06:43:23;14.40;99.90
2489;DHT22;1255;48.716;9.124;2022-10-16T06:45:51;14.50;99.90
2489;DHT22;1255;48.716;9.124;2022-10-16T06:48:20;14.50;99.90
2489;DHT22;1255;48.716;9.124;2022-10-16T06:50:56;14.60;99.90
2489;DHT22;1255;48.716;9.124;2022-10-16T06:53:24;14.60;99.90
2489;DHT22;1255;48.716;9.124;2022-10-16T06:55:50;14.70;99.90
2489;DHT22;1255;48.716;9.124;2022-10-16T06:58:17;14.70;99.90
2489;DHT22;1255;48.716;9.124;2022-10-16T07:00:45;14.80;99.90
2489;DHT22;1255;48.716;9.124;2022-10-16T07:03:12;14.80;99.90
2489;DHT22;1255;48.716;9.124;2022-10-16T07:05:40;14.80;99.90
2489;DHT22;1255;48.716;9.124;2022-10-16T07:08:08;14.90;99.90
2489;DHT22;1255;48.716;9.124;2022-10-16T07:10:35;14.90;99.90
2489;DHT22;1255;48.716;9.124;2022-10-16T07:13:02;15.00;99.90
2489;DHT22;1255;48.716;9.124;2022-10-16T07:15:29;15.00;99.90
2489;DHT22;1255;48.716;9.124;2022-10-16T07:17:57;15.00;99.90
2489;DHT22;1255;48.716;9.124;2022-10-16T07:20:24;15.00;99.90
2489;DHT22;1255;48.716;9.124;2022-10-16T07:22:50;15.10;99.90
2489;DHT22;1255;48.716;9.124;2022-10-16T07:25:18;15.10;99.90
2489;DHT22;1255;48.716;9.124;2022-10-16T07:27:44;15.10;99.90
2489;DHT22;1255;48.716;9.124;2022-10-16T07:30:12;15.20;99.90
2489;DHT22;1255;48.716;9.124;2022-10-16T07:32:38;15.20;99.90
2489;DHT22;1255;48.716;9.124;2022-10-16T07:35:07;15.20;99.90
2489;DHT22;1255;48.716;9.124;2022-10-16T07:37:34;15.20;99.90
2489;DHT22;1255;48.716;9.124;2022-10-16T07:40:00;15.30;99.90
2489;DHT22;1255;48.716;9.124;2022-10-16T07:42:27;15.30;99.90
2489;DHT22;1255;48.716;9.124;2022-10-16T07:44:54;15.40;99.90
2489;DHT22;1255;48.716;9.124;2022-10-16T07:47:21;15.40;99.90
2489;DHT22;1255;48.716;9.124;2022-10-16T07:49:48;15.40;99.90
2489;DHT22;1255;48.716;9.124;2022-10-16T07:52:16;15.50;99.90
2489;DHT22;1255;48.716;9.124;2022-10-16T07:54:42;15.50;99.90
2489;DHT22;1255;48.716;9.124;2022-10-16T07:57:09;15.50;99.90
2489;DHT22;1255;48.716;9.124;2022-10-16T07:59:36;15.60;99.90
2489;DHT22;1255;48.716;9.124;2022-10-16T08:02:02;15.60;99.90
2489;DHT22;1255;48.716;9.124;2022-10-16T08:04:29;15.70;99.90
2489;DHT22;1255;48.716;9.124;2022-10-16T08:06:56;15.70;99.90
2489;DHT22;1255;48.716;9.124;2022-10-16T08:09:24;15.70;99.90
2489;DHT22;1255;48.716;9.124;2022-10-16T08:11:51;15.80;99.90
2489;DHT22;1255;48.716;9.124;2022-10-16T08:14:18;15.90;99.90
2489;DHT22;1255;48.716;9.124;2022-10-16T08:16:44;15.90;99.90
2489;DHT22;1255;48.716;9.124;2022-10-16T08:19:11;15.90;99.90
2489;DHT22;1255;48.716;9.124;2022-10-16T08:21:39;16.00;99.90
2489;DHT22;1255;48.716;9.124;2022-10-16T08:24:06;16.00;99.90
2489;DHT22;1255;48.716;9.124;2022-10-16T08:26:34;16.10;99.90
2489;DHT22;1255;48.716;9.124;2022-10-16T08:29:00;16.20;99.90
2489;DHT22;1255;48.716;9.124;2022-10-16T08:31:27;16.30;99.90
2489;DHT22;1255;48.716;9.124;2022-10-16T08:33:54;16.40;99.90
2489;DHT22;1255;48.716;9.124;2022-10-16T08:36:21;16.50;99.90
2489;DHT22;1255;48.716;9.124;2022-10-16T08:38:48;16.60;99.90
2489;DHT22;1255;48.716;9.124;2022-10-16T08:41:42;16.60;99.90
2489;DHT22;1255;48.716;9.124;2022-10-16T08:47:15;16.60;99.90
2489;DHT22;1255;48.716;9.124;2022-10-16T08:49:54;16.70;99.90
2489;DHT22;1255;48.716;9.124;2022-10-16T08:52:22;16.60;99.90
2489;DHT22;1255;48.716;9.124;2022-10-16T08:54:53;16.60;99.90
2489;DHT22;1255;48.716;9.124;2022-10-16T08:57:23;16.60;99.90
2489;DHT22;1255;48.716;9.124;2022-10-16T08:59:53;16.60;99.90
2489;DHT22;1255;48.716;9.124;2022-10-16T09:02:31;16.60;99.90
2489;DHT22;1255;48.716;9.124;2022-10-16T09:05:43;16.70;99.90
2489;DHT22;1255;48.716;9.124;2022-10-16T09:08:17;16.70;99.90
2489;DHT22;1255;48.716;9.124;2022-10-16T09:10:54;16.80;99.90
2489;DHT22;1255;48.716;9.124;2022-10-16T09:13:26;16.90;99.90
2489;DHT22;1255;48.716;9.124;2022-10-16T09:16:04;17.00;99.90
2489;DHT22;1255;48.716;9.124;2022-10-16T09:18:42;17.20;99.90
2489;DHT22;1255;48.716;9.124;2022-10-16T09:21:15;17.30;99.90
2489;DHT22;1255;48.716;9.124;2022-10-16T09:23:45;17.50;99.90
2489;DHT22;1255;48.716;9.124;2022-10-16T09:26:13;17.70;99.90
2489;DHT22;1255;48.716;9.124;2022-10-16T09:28:40;17.80;99.90
2489;DHT22;1255;48.716;9.124;2022-10-16T09:31:15;18.10;99.90
2489;DHT22;1255;48.716;9.124;2022-10-16T09:33:44;18.40;99.90
2489;DHT22;1255;48.716;9.124;2022-10-16T09:36:13;18.60;99.90
2489;DHT22;1255;48.716;9.124;2022-10-16T09:38:40;19.00;99.90
2489;DHT22;1255;48.716;9.124;2022-10-16T09:41:15;19.30;99.90
2489;DHT22;1255;48.716;9.124;2022-10-16T09:43:48;19.50;99.90
2489;DHT22;1255;48.716;9.124;2022-10-16T09:46:26;19.70;99.90
2489;DHT22;1255;48.716;9.124;2022-10-16T09:48:56;19.60;99.90
2489;DHT22;1255;48.716;9.124;2022-10-16T09:51:25;19.70;99.90
2489;DHT22;1255;48.716;9.124;2022-10-16T09:53:56;20.00;99.90
2489;DHT22;1255;48.716;9.124;2022-10-16T09:56:25;20.40;99.90
2489;DHT22;1255;48.716;9.124;2022-10-16T09:58:53;20.60;99.90
2489;DHT22;1255;48.716;9.124;2022-10-16T10:01:22;20.60;99.90
2489;DHT22;1255;48.716;9.124;2022-10-16T10:03:50;20.50;99.90
2489;DHT22;1255;48.716;9.124;2022-10-16T10:06:25;20.60;99.90
2489;DHT22;1255;48.716;9.124;2022-10-16T10:08:54;20.70;99.90
2489;DHT22;1255;48.716;9.124;2022-10-16T10:11:50;20.90;99.90
2489;DHT22;1255;48.716;9.124;2022-10-16T10:14:23;21.30;99.90
2489;DHT22;1255;48.716;9.124;2022-10-16T10:16:52;21.60;99.90
2489;DHT22;1255;48.716;9.124;2022-10-16T10:19:21;21.80;99.90
2489;DHT22;1255;48.716;9.124;2022-10-16T10:21:49;21.70;99.90
2489;DHT22;1255;48.716;9.124;2022-10-16T10:24:18;21.60;99.90
2489;DHT22;1255;48.716;9.124;2022-10-16T10:26:51;21.50;99.90
2489;DHT22;1255;48.716;9.124;2022-10-16T10:29:30;21.40;99.90
2489;DHT22;1255;48.716;9.124;2022-10-16T10:32:08;21.30;99.90
2489;DHT22;1255;48.716;9.124;2022-10-16T10:34:56;21.20;99.90
2489;DHT22;1255;48.716;9.124;2022-10-16T10:37:36;21.20;99.90
2489;DHT22;1255;48.716;9.124;2022-10-16T10:40:11;21.10;99.90
2489;DHT22;1255;48.716;9.124;2022-10-16T10:42:43;21.00;99.90
2489;DHT22;1255;48.716;9.124;2022-10-16T10:45:18;21.10;99.90
2489;DHT22;1255;48.716;9.124;2022-10-16T10:48:00;21.20;99.90
2489;DHT22;1255;48.716;9.124;2022-10-16T10:50:36;21.20;99.90
2489;DHT22;1255;48.716;9.124;2022-10-16T10:53:10;21.40;99.90
2489;DHT22;1255;48.716;9.124;2022-10-16T10:55:44;21.60;99.90
2489;DHT22;1255;48.716;9.124;2022-10-16T10:58:51;22.00;99.90
2489;DHT22;1255;48.716;9.124;2022-10-16T11:01:24;22.00;99.90
2489;DHT22;1255;48.716;9.124;2022-10-16T11:04:15;22.10;99.90
2489;DHT22;1255;48.716;9.124;2022-10-16T11:06:51;22.40;99.90
2489;DHT22;1255;48.716;9.124;2022-10-16T11:09:23;22.70;99.90
2489;DHT22;1255;48.716;9.124;2022-10-16T11:11:54;22.60;99.90
2489;DHT22;1255;48.716;9.124;2022-10-16T11:14:28;22.70;99.90
2489;DHT22;1255;48.716;9.124;2022-10-16T11:16:59;22.80;99.90
2489;DHT22;1255;48.716;9.124;2022-10-16T11:19:35;22.70;99.90
2489;DHT22;1255;48.716;9.124;2022-10-16T11:22:09;22.40;99.90
2489;DHT22;1255;48.716;9.124;2022-10-16T11:24:42;22.30;99.90
2489;DHT22;1255;48.716;9.124;2022-10-16T11:27:15;22.20;99.90
2489;DHT22;1255;48.716;9.124;2022-10-16T11:29:48;22.30;99.90
2489;DHT22;1255;48.716;9.124;2022-10-16T11:32:22;22.40;99.90
2489;DHT22;1255;48.716;9.124;2022-10-16T11:34:55;22.40;99.90
2489;DHT22;1255;48.716;9.124;2022-10-16T11:37:25;22.40;99.90
2489;DHT22;1255;48.716;9.124;2022-10-16T11:39:57;22.60;99.90
2489;DHT22;1255;48.716;9.124;2022-10-16T11:42:30;22.90;99.90
2489;DHT22;1255;48.716;9.124;2022-10-16T11:45:03;23.10;99.90
2489;DHT22;1255;48.716;9.124;2022-10-16T11:47:37;23.40;99.90
2489;DHT22;1255;48.716;9.124;2022-10-16T11:50:26;23.80;99.90
2489;DHT22;1255;48.716;9.124;2022-10-16T11:53:01;24.20;99.90
2489;DHT22;1255;48.716;9.124;2022-10-16T11:55:33;24.40;99.90
2489;DHT22;1255;48.716;9.124;2022-10-16T11:58:04;24.70;99.90
2489;DHT22;1255;48.716;9.124;2022-10-16T12:00:37;25.00;99.90
2489;DHT22;1255;48.716;9.124;2022-10-16T12:03:14;25.20;99.90
2489;DHT22;1255;48.716;9.124;2022-10-16T12:05:55;25.40;99.90
2489;DHT22;1255;48.716;9.124;2022-10-16T12:08:25;25.40;99.90
2489;DHT22;1255;48.716;9.124;2022-10-16T12:10:53;25.40;99.90
2489;DHT22;1255;48.716;9.124;2022-10-16T12:13:31;25.50;99.90
2489;DHT22;1255;48.716;9.124;2022-10-16T12:16:06;25.40;99.90
2489;DHT22;1255;48.716;9.124;2022-10-16T12:18:34;25.50;99.90
2489;DHT22;1255;48.716;9.124;2022-10-16T12:21:03;25.60;99.90
2489;DHT22;1255;48.716;9.124;2022-10-16T12:23:32;25.80;99.90
2489;DHT22;1255;48.716;9.124;2022-10-16T12:26:01;25.80;99.90
2489;DHT22;1255;48.716;9.124;2022-10-16T12:28:29;25.70;99.90
2489;DHT22;1255;48.716;9.124;2022-10-16T12:30:58;25.60;99.90
2489;DHT22;1255;48.716;9.124;2022-10-16T12:33:26;25.40;99.90
2489;DHT22;1255;48.716;9.124;2022-10-16T12:35:54;25.20;99.90
2489;DHT22;1255;48.716;9.124;2022-10-16T12:38:26;25.20;99.90
2489;DHT22;1255;48.716;9.124;2022-10-16T12:40:59;25.30;99.90
2489;DHT22;1255;48.716;9.124;2022-10-16T12:43:40;25.40;99.90
2489;DHT22;1255;48.716;9.124;2022-10-16T12:46:36;25.60;99.90
2489;DHT22;1255;48.716;9.124;2022-10-16T12:49:21;25.40;99.90
2489;DHT22;1255;48.716;9.124;2022-10-16T12:51:50;25.20;99.90
2489;DHT22;1255;48.716;9.124;2022-10-16T12:54:21;24.90;99.90
2489;DHT22;1255;48.716;9.124;2022-10-16T12:57:00;24.60;99.90
2489;DHT22;1255;48.716;9.124;2022-10-16T12:59:35;24.30;99.90
2489;DHT22;1255;48.716;9.124;2022-10-16T13:02:21;24.00;99.90
2489;DHT22;1255;48.716;9.124;2022-10-16T13:05:05;23.70;99.90
2489;DHT22;1255;48.716;9.124;2022-10-16T13:07:46;23.50;99.90
2489;DHT22;1255;48.716;9.124;2022-10-16T13:10:22;23.40;99.90
2489;DHT22;1255;48.716;9.124;2022-10-16T13:13:06;23.30;99.90
2489;DHT22;1255;48.716;9.124;2022-10-16T13:15:53;23.30;99.90
2489;DHT22;1255;48.716;9.124;2022-10-16T13:18:32;23.20;99.90
2489;DHT22;1255;48.716;9.124;2022-10-16T13:21:08;23.10;99.90
2489;DHT22;1255;48.716;9.124;2022-10-16T13:23:42;23.10;99.90
2489;DHT22;1255;48.716;9.124;2022-10-16T13:26:23;22.90;99.90
2489;DHT22;1255;48.716;9.124;2022-10-16T13:28:53;22.80;99.90
2489;DHT22;1255;48.716;9.124;2022-10-16T13:31:21;22.80;99.90
2489;DHT22;1255;48.716;9.124;2022-10-16T13:33:51;22.70;99.90
2489;DHT22;1255;48.716;9.124;2022-10-16T13:36:21;22.70;99.90
2489;DHT22;1255;48.716;9.124;2022-10-16T13:38:49;22.70;99.90
2489;DHT22;1255;48.716;9.124;2022-10-16T13:41:27;22.80;99.90
2489;DHT22;1255;48.716;9.124;2022-10-16T13:43:54;22.80;99.90
2489;DHT22;1255;48.716;9.124;2022-10-16T13:46:24;22.80;99.90
2489;DHT22;1255;48.716;9.124;2022-10-16T13:48:57;22.90;99.90
2489;DHT22;1255;48.716;9.124;2022-10-16T13:51:24;23.00;99.90
2489;DHT22;1255;48.716;9.124;2022-10-16T13:53:51;23.00;99.90
2489;DHT22;1255;48.716;9.124;2022-10-16T13:56:20;23.00;99.90
2489;DHT22;1255;48.716;9.124;2022-10-16T13:58:58;23.00;99.90
2489;DHT22;1255;48.716;9.124;2022-10-16T14:01:28;22.90;99.90
2489;DHT22;1255;48.716;9.124;2022-10-16T14:04:01;22.80;99.90
2489;DHT22;1255;48.716;9.124;2022-10-16T14:06:29;22.70;99.90
2489;DHT22;1255;48.716;9.124;2022-10-16T14:08:59;22.60;99.90
2489;DHT22;1255;48.716;9.124;2022-10-16T14:11:27;22.50;99.90
2489;DHT22;1255;48.716;9.124;2022-10-16T14:13:56;22.40;99.90
2489;DHT22;1255;48.716;9.124;2022-10-16T14:16:27;22.30;99.90
2489;DHT22;1255;48.716;9.124;2022-10-16T14:18:57;22.30;99.90
2489;DHT22;1255;48.716;9.124;2022-10-16T14:21:26;22.20;99.90
2489;DHT22;1255;48.716;9.124;2022-10-16T14:23:53;22.20;99.90
2489;DHT22;1255;48.716;9.124;2022-10-16T14:26:22;22.20;99.90
2489;DHT22;1255;48.716;9.124;2022-10-16T14:29:03;22.10;99.90
2489;DHT22;1255;48.716;9.124;2022-10-16T14:31:32;22.10;99.90
2489;DHT22;1255;48.716;9.124;2022-10-16T14:33:59;22.10;99.90
2489;DHT22;1255;48.716;9.124;2022-10-16T14:36:27;22.00;99.90
2489;DHT22;1255;48.716;9.124;2022-10-16T14:38:59;22.00;99.90
2489;DHT22;1255;48.716;9.124;2022-10-16T14:41:28;21.90;99.90
2489;DHT22;1255;48.716;9.124;2022-10-16T14:43:56;22.00;99.90
2489;DHT22;1255;48.716;9.124;2022-10-16T14:46:31;22.00;99.90
2489;DHT22;1255;48.716;9.124;2022-10-16T14:49:02;22.10;99.90
2489;DHT22;1255;48.716;9.124;2022-10-16T14:51:30;22.20;99.90
2489;DHT22;1255;48.716;9.124;2022-10-16T14:53:56;22.20;99.90
2489;DHT22;1255;48.716;9.124;2022-10-16T14:56:25;22.20;99.90
2489;DHT22;1255;48.716;9.124;2022-10-16T14:58:55;22.30;99.90
2489;DHT22;1255;48.716;9.124;2022-10-16T15:01:23;22.30;99.90
2489;DHT22;1255;48.716;9.124;2022-10-16T15:03:50;22.50;99.90
2489;DHT22;1255;48.716;9.124;2022-10-16T15:06:20;22.60;99.90
2489;DHT22;1255;48.716;9.124;2022-10-16T15:08:47;22.60;99.90
2489;DHT22;1255;48.716;9.124;2022-10-16T15:11:16;22.60;99.90
2489;DHT22;1255;48.716;9.124;2022-10-16T15:13:43;22.60;99.90
2489;DHT22;1255;48.716;9.124;2022-10-16T15:16:11;22.50;99.90
2489;DHT22;1255;48.716;9.124;2022-10-16T15:18:39;22.30;99.90
2489;DHT22;1255;48.716;9.124;2022-10-16T15:21:06;22.20;99.90
2489;DHT22;1255;48.716;9.124;2022-10-16T15:23:33;22.10;99.90
2489;DHT22;1255;48.716;9.124;2022-10-16T15:26:00;22.00;99.90
2489;DHT22;1255;48.716;9.124;2022-10-16T15:28:27;21.80;99.90
2489;DHT22;1255;48.716;9.124;2022-10-16T15:30:55;21.70;99.90
2489;DHT22;1255;48.716;9.124;2022-10-16T15:33:24;21.60;99.90
2489;DHT22;1255;48.716;9.124;2022-10-16T15:35:54;21.50;99.90
2489;DHT22;1255;48.716;9.124;2022-10-16T15:38:21;21.40;99.90
2489;DHT22;1255;48.716;9.124;2022-10-16T15:40:49;21.30;99.90
2489;DHT22;1255;48.716;9.124;2022-10-16T15:43:16;21.10;99.90
2489;DHT22;1255;48.716;9.124;2022-10-16T15:45:44;21.00;99.90
2489;DHT22;1255;48.716;9.124;2022-10-16T15:48:12;20.80;99.90
2489;DHT22;1255;48.716;9.124;2022-10-16T15:50:39;20.70;99.90
2489;DHT22;1255;48.716;9.124;2022-10-16T15:53:07;20.60;99.90
2489;DHT22;1255;48.716;9.124;2022-10-16T15:55:34;20.40;99.90
2489;DHT22;1255;48.716;9.124;2022-10-16T15:58:03;20.30;99.90
2489;DHT22;1255;48.716;9.124;2022-10-16T16:00:30;20.20;99.90
2489;DHT22;1255;48.716;9.124;2022-10-16T16:02:57;20.10;99.90
2489;DHT22;1255;48.716;9.124;2022-10-16T16:05:24;20.00;99.90
2489;DHT22;1255;48.716;9.124;2022-10-16T16:07:51;19.90;99.90
2489;DHT22;1255;48.716;9.124;2022-10-16T16:10:19;19.80;99.90
2489;DHT22;1255;48.716;9.124;2022-10-16T16:12:47;19.60;99.90
2489;DHT22;1255;48.716;9.124;2022-10-16T16:15:18;19.50;99.90
2489;DHT22;1255;48.716;9.124;2022-10-16T16:17:45;19.40;99.90
2489;DHT22;1255;48.716;9.124;2022-10-16T16:20:12;19.30;99.90
2489;DHT22;1255;48.716;9.124;2022-10-16T16:22:39;19.30;99.90
2489;DHT22;1255;48.716;9.124;2022-10-16T16:25:06;19.10;99.90